sensor_id;sensor_type;location;lat;lon;timestamp;temperature;humidity
21559;DHT22;10940;48.890;8.240;2023-01-20T00:02:12;-0.90;99.90
21559;DHT22;10940;48.890;8.240;2023-01-20T00:04:37;-0.90;99.90
21559;DHT22;10940;48.890;8.240;2023-01-20T00:07:03;-1.00;99.90
21559;DHT22;10940;48.890;8.240;2023-01-20T00:09:28;-1.00;99.90
21559;DHT22;10940;48.890;8.240;2023-01-20T00:11:54;-1.00;99.90
21559;DHT22;10940;48.890;8.240;2023-01-20T00:14:20;-1.00;99.90
21559;DHT22;10940;48.890;8.240;2023-01-20T00:16:46;-1.00;99.90
21559;DHT22;10940;48.890;8.240;2023-01-20T00:19:12;-1.00;99.90
21559;DHT22;10940;48.890;8.240;2023-01-20T00:21:39;-0.90;99.90
21559;DHT22;10940;48.890;8.240;2023-01-20T00:24:05;-1.00;99.90
21559;DHT22;10940;48.890;8.240;2023-01-20T00:26:31;-1.00;99.90
21559;DHT22;10940;48.890;8.240;2023-01-20T00:28:56;-0.90;99.90
21559;DHT22;10940;48.890;8.240;2023-01-20T00:31:24;-0.90;99.90
21559;DHT22;10940;48.890;8.240;2023-01-20T00:33:51;-0.80;99.90
21559;DHT22;10940;48.890;8.240;2023-01-20T00:36:18;-0.80;99.90
21559;DHT22;10940;48.890;8.240;2023-01-20T00:38:45;-0.80;99.90
21559;DHT22;10940;48.890;8.240;2023-01-20T00:41:11;-0.80;99.90
21559;DHT22;10940;48.890;8.240;2023-01-20T00:43:37;-0.80;99.90
21559;DHT22;10940;48.890;8.240;2023-01-20T00:46:17;-0.80;99.90
21559;DHT22;10940;48.890;8.240;2023-01-20T00:48:43;-0.80;99.90
21559;DHT22;10940;48.890;8.240;2023-01-20T00:51:09;-0.90;99.90
21559;DHT22;10940;48.890;8.240;2023-01-20T00:53:35;-0.90;99.90
21559;DHT22;10940;48.890;8.240;2023-01-20T00:56:01;-0.90;99.90
21559;DHT22;10940;48.890;8.240;2023-01-20T00:58:27;-1.00;99.90
21559;DHT22;10940;48.890;8.240;2023-01-20T01:00:54;-1.00;99.90
21559;DHT22;10940;48.890;8.240;2023-01-20T01:03:20;-1.00;99.90
21559;DHT22;10940;48.890;8.240;2023-01-20T01:05:46;-1.00;99.90
21559;DHT22;10940;48.890;8.240;2023-01-20T01:08:12;-1.00;99.90
21559;DHT22;10940;48.890;8.240;2023-01-20T01:10:38;-1.00;99.90
21559;DHT22;10940;48.890;8.240;2023-01-20T01:13:05;-1.00;99.90
21559;DHT22;10940;48.890;8.240;2023-01-20T01:15:31;-1.10;99.90
21559;DHT22;10940;48.890;8.240;2023-01-20T01:17:58;-1.00;99.90
21559;DHT22;10940;48.890;8.240;2023-01-20T01:20:24;-1.10;99.90
21559;DHT22;10940;48.890;8.240;2023-01-20T01:22:50;-1.10;99.90
21559;DHT22;10940;48.890;8.240;2023-01-20T01:25:16;-1.10;99.90
21559;DHT22;10940;48.890;8.240;2023-01-20T01:27:42;-1.10;99.90
21559;DHT22;10940;48.890;8.240;2023-01-20T01:30:08;-1.20;99.90
21559;DHT22;10940;48.890;8.240;2023-01-20T01:32:34;-1.20;99.90
21559;DHT22;10940;48.890;8.240;2023-01-20T01:34:59;-1.20;99.90
21559;DHT22;10940;48.890;8.240;2023-01-20T01:37:27;-1.20;99.90
21559;DHT22;10940;48.890;8.240;2023-01-20T01:39:52;-1.20;99.90
21559;DHT22;10940;48.890;8.240;2023-01-20T01:42:21;-1.20;99.90
21559;DHT22;10940;48.890;8.240;2023-01-20T01:51:10;-1.20;99.90
21559;DHT22;10940;48.890;8.240;2023-01-20T01:53:42;-1.30;99.90
21559;DHT22;10940;48.890;8.240;2023-01-20T01:56:09;-1.30;99.90
21559;DHT22;10940;48.890;8.240;2023-01-20T01:58:38;-1.30;99.90
21559;DHT22;10940;48.890;8.240;2023-01-20T02:01:05;-1.30;99.90
21559;DHT22;10940;48.890;8.240;2023-01-20T02:04:10;-1.40;99.90
21559;DHT22;10940;48.890;8.240;2023-01-20T02:06:40;-1.40;99.90
21559;DHT22;10940;48.890;8.240;2023-01-20T02:09:06;-1.40;99.90
21559;DHT22;10940;48.890;8.240;2023-01-20T02:11:37;-1.40;99.90
21559;DHT22;10940;48.890;8.240;2023-01-20T02:14:04;-1.40;99.90
21559;DHT22;10940;48.890;8.240;2023-01-20T02:19:49;-1.40;99.90
21559;DHT22;10940;48.890;8.240;2023-01-20T02:27:50;-1.50;99.90
21559;DHT22;10940;48.890;8.240;2023-01-20T02:33:32;-1.50;99.90
21559;DHT22;10940;48.890;8.240;2023-01-20T02:36:06;-1.50;99.90
21559;DHT22;10940;48.890;8.240;2023-01-20T02:41:24;-1.40;99.90
21559;DHT22;10940;48.890;8.240;2023-01-20T02:44:11;-1.40;99.90
21559;DHT22;10940;48.890;8.240;2023-01-20T02:46:51;-1.40;99.90
21559;DHT22;10940;48.890;8.240;2023-01-20T02:51:57;-1.40;99.90
21559;DHT22;10940;48.890;8.240;2023-01-20T02:54:26;-1.40;99.90
21559;DHT22;10940;48.890;8.240;2023-01-20T02:56:53;-1.40;99.90
21559;DHT22;10940;48.890;8.240;2023-01-20T02:59:23;-1.30;99.90
21559;DHT22;10940;48.890;8.240;2023-01-20T03:01:55;-1.30;99.90
21559;DHT22;10940;48.890;8.240;2023-01-20T03:04:28;-1.30;99.90
21559;DHT22;10940;48.890;8.240;2023-01-20T03:06:56;-1.30;99.90
21559;DHT22;10940;48.890;8.240;2023-01-20T03:09:44;-1.30;99.90
21559;DHT22;10940;48.890;8.240;2023-01-20T03:12:21;-1.30;99.90
21559;DHT22;10940;48.890;8.240;2023-01-20T03:14:49;-1.20;99.90
21559;DHT22;10940;48.890;8.240;2023-01-20T03:17:16;-1.20;99.90
21559;DHT22;10940;48.890;8.240;2023-01-20T03:19:42;-1.20;99.90
21559;DHT22;10940;48.890;8.240;2023-01-20T03:22:08;-1.20;99.90
21559;DHT22;10940;48.890;8.240;2023-01-20T03:24:34;-1.20;99.90
21559;DHT22;10940;48.890;8.240;2023-01-20T03:27:01;-1.20;99.90
21559;DHT22;10940;48.890;8.240;2023-01-20T03:29:27;-1.30;99.90
21559;DHT22;10940;48.890;8.240;2023-01-20T03:31:58;-1.30;99.90
21559;DHT22;10940;48.890;8.240;2023-01-20T03:34:25;-1.30;99.90
21559;DHT22;10940;48.890;8.240;2023-01-20T03:36:52;-1.30;99.90
21559;DHT22;10940;48.890;8.240;2023-01-20T03:39:19;-1.30;99.90
21559;DHT22;10940;48.890;8.240;2023-01-20T03:44:35;-1.30;99.90
21559;DHT22;10940;48.890;8.240;2023-01-20T03:50:22;-1.20;99.90
21559;DHT22;10940;48.890;8.240;2023-01-20T03:52:52;-1.20;99.90
21559;DHT22;10940;48.890;8.240;2023-01-20T03:55:29;-1.20;99.90
21559;DHT22;10940;48.890;8.240;2023-01-20T03:58:00;-1.20;99.90
21559;DHT22;10940;48.890;8.240;2023-01-20T04:00:30;-1.10;99.90
21559;DHT22;10940;48.890;8.240;2023-01-20T04:02:58;-1.10;99.90
21559;DHT22;10940;48.890;8.240;2023-01-20T04:05:25;-1.20;99.90
21559;DHT22;10940;48.890;8.240;2023-01-20T04:07:55;-1.20;99.90
21559;DHT22;10940;48.890;8.240;2023-01-20T04:10:23;-1.30;99.90
21559;DHT22;10940;48.890;8.240;2023-01-20T04:12:49;-1.30;99.90
21559;DHT22;10940;48.890;8.240;2023-01-20T04:15:15;-1.30;99.90
21559;DHT22;10940;48.890;8.240;2023-01-20T04:17:42;-1.30;99.90
21559;DHT22;10940;48.890;8.240;2023-01-20T04:20:12;-1.30;99.90
21559;DHT22;10940;48.890;8.240;2023-01-20T04:22:49;-1.20;99.90
21559;DHT22;10940;48.890;8.240;2023-01-20T04:25:24;-1.20;99.90
21559;DHT22;10940;48.890;8.240;2023-01-20T04:27:51;-1.10;99.90
21559;DHT22;10940;48.890;8.240;2023-01-20T04:30:16;-1.10;99.90
21559;DHT22;10940;48.890;8.240;2023-01-20T04:32:42;-1.20;99.90
21559;DHT22;10940;48.890;8.240;2023-01-20T04:35:14;-1.20;99.90
21559;DHT22;10940;48.890;8.240;2023-01-20T04:37:40;-1.30;99.90
21559;DHT22;10940;48.890;8.240;2023-01-20T04:40:07;-1.30;99.90
21559;DHT22;10940;48.890;8.240;2023-01-20T04:42:32;-1.30;99.90
21559;DHT22;10940;48.890;8.240;2023-01-20T04:44:58;-1.30;99.90
21559;DHT22;10940;48.890;8.240;2023-01-20T04:47:24;-1.30;99.90
21559;DHT22;10940;48.890;8.240;2023-01-20T04:49:49;-1.30;99.90
21559;DHT22;10940;48.890;8.240;2023-01-20T04:52:15;-1.30;99.90
21559;DHT22;10940;48.890;8.240;2023-01-20T04:54:41;-1.30;99.90
21559;DHT22;10940;48.890;8.240;2023-01-20T04:57:06;-1.30;99.90
21559;DHT22;10940;48.890;8.240;2023-01-20T04:59:32;-1.40;99.90
21559;DHT22;10940;48.890;8.240;2023-01-20T05:01:58;-1.40;99.90
21559;DHT22;10940;48.890;8.240;2023-01-20T05:04:23;-1.60;99.90
21559;DHT22;10940;48.890;8.240;2023-01-20T05:06:49;-1.60;99.90
21559;DHT22;10940;48.890;8.240;2023-01-20T05:09:15;-1.70;99.90
21559;DHT22;10940;48.890;8.240;2023-01-20T05:11:41;-1.70;99.90
21559;DHT22;10940;48.890;8.240;2023-01-20T05:14:07;-1.70;99.90
21559;DHT22;10940;48.890;8.240;2023-01-20T05:16:33;-1.80;99.90
21559;DHT22;10940;48.890;8.240;2023-01-20T05:18:59;-1.80;99.90
21559;DHT22;10940;48.890;8.240;2023-01-20T05:21:25;-1.70;99.90
21559;DHT22;10940;48.890;8.240;2023-01-20T05:23:55;-1.80;99.90
21559;DHT22;10940;48.890;8.240;2023-01-20T05:26:22;-1.80;99.90
21559;DHT22;10940;48.890;8.240;2023-01-20T05:28:48;-1.80;99.90
21559;DHT22;10940;48.890;8.240;2023-01-20T05:31:14;-1.80;99.90
21559;DHT22;10940;48.890;8.240;2023-01-20T05:33:40;-1.70;99.90
21559;DHT22;10940;48.890;8.240;2023-01-20T05:36:06;-1.80;99.90
21559;DHT22;10940;48.890;8.240;2023-01-20T05:38:32;-1.80;99.90
21559;DHT22;10940;48.890;8.240;2023-01-20T05:40:59;-1.80;99.90
21559;DHT22;10940;48.890;8.240;2023-01-20T05:43:25;-1.80;99.90
21559;DHT22;10940;48.890;8.240;2023-01-20T05:45:51;-1.80;99.90
21559;DHT22;10940;48.890;8.240;2023-01-20T05:48:16;-1.80;99.90
21559;DHT22;10940;48.890;8.240;2023-01-20T05:50:42;-1.80;99.90
21559;DHT22;10940;48.890;8.240;2023-01-20T05:53:08;-1.80;99.90
21559;DHT22;10940;48.890;8.240;2023-01-20T05:55:34;-1.80;99.90
21559;DHT22;10940;48.890;8.240;2023-01-20T05:58:03;-1.90;99.90
21559;DHT22;10940;48.890;8.240;2023-01-20T06:00:29;-1.90;99.90
21559;DHT22;10940;48.890;8.240;2023-01-20T06:02:54;-1.80;99.90
21559;DHT22;10940;48.890;8.240;2023-01-20T06:05:20;-1.80;99.90
21559;DHT22;10940;48.890;8.240;2023-01-20T06:07:46;-1.90;99.90
21559;DHT22;10940;48.890;8.240;2023-01-20T06:10:14;-1.90;99.90
21559;DHT22;10940;48.890;8.240;2023-01-20T06:12:40;-1.80;99.90
21559;DHT22;10940;48.890;8.240;2023-01-20T06:15:06;-1.70;99.90
21559;DHT22;10940;48.890;8.240;2023-01-20T06:17:32;-1.70;99.90
21559;DHT22;10940;48.890;8.240;2023-01-20T06:19:58;-1.60;99.90
21559;DHT22;10940;48.890;8.240;2023-01-20T06:22:25;-1.60;99.90
21559;DHT22;10940;48.890;8.240;2023-01-20T06:24:50;-1.50;99.90
21559;DHT22;10940;48.890;8.240;2023-01-20T06:27:17;-1.50;99.90
21559;DHT22;10940;48.890;8.240;2023-01-20T06:29:43;-1.50;99.90
21559;DHT22;10940;48.890;8.240;2023-01-20T06:32:09;-1.50;99.90
21559;DHT22;10940;48.890;8.240;2023-01-20T06:34:35;-1.50;99.90
21559;DHT22;10940;48.890;8.240;2023-01-20T06:37:01;-1.40;99.90
21559;DHT22;10940;48.890;8.240;2023-01-20T06:39:27;-1.40;99.90
21559;DHT22;10940;48.890;8.240;2023-01-20T06:41:56;-1.40;99.90
21559;DHT22;10940;48.890;8.240;2023-01-20T06:44:23;-1.40;99.90
21559;DHT22;10940;48.890;8.240;2023-01-20T06:46:48;-1.40;99.90
21559;DHT22;10940;48.890;8.240;2023-01-20T06:49:14;-1.40;99.90
21559;DHT22;10940;48.890;8.240;2023-01-20T06:51:40;-1.40;99.90
21559;DHT22;10940;48.890;8.240;2023-01-20T06:54:06;-1.40;99.90
21559;DHT22;10940;48.890;8.240;2023-01-20T06:56:31;-1.40;99.90
21559;DHT22;10940;48.890;8.240;2023-01-20T06:58:57;-1.40;99.90
21559;DHT22;10940;48.890;8.240;2023-01-20T07:01:27;-1.40;99.90
21559;DHT22;10940;48.890;8.240;2023-01-20T07:03:54;-1.30;99.90
21559;DHT22;10940;48.890;8.240;2023-01-20T07:06:26;-1.40;99.90
21559;DHT22;10940;48.890;8.240;2023-01-20T07:08:52;-1.50;99.90
21559;DHT22;10940;48.890;8.240;2023-01-20T07:11:18;-1.40;99.90
21559;DHT22;10940;48.890;8.240;2023-01-20T07:13:43;-1.50;99.90
21559;DHT22;10940;48.890;8.240;2023-01-20T07:16:09;-1.50;99.90
21559;DHT22;10940;48.890;8.240;2023-01-20T07:18:36;-1.60;99.90
21559;DHT22;10940;48.890;8.240;2023-01-20T07:21:02;-1.60;99.90
21559;DHT22;10940;48.890;8.240;2023-01-20T07:23:29;-1.60;99.90
21559;DHT22;10940;48.890;8.240;2023-01-20T07:26:07;-1.70;99.90
21559;DHT22;10940;48.890;8.240;2023-01-20T07:28:34;-1.70;99.90
21559;DHT22;10940;48.890;8.240;2023-01-20T07:31:04;-1.80;99.90
21559;DHT22;10940;48.890;8.240;2023-01-20T07:33:30;-1.80;99.90
21559;DHT22;10940;48.890;8.240;2023-01-20T07:35:56;-1.80;99.90
21559;DHT22;10940;48.890;8.240;2023-01-20T07:38:22;-1.90;99.90
21559;DHT22;10940;48.890;8.240;2023-01-20T07:40:47;-1.90;99.90
21559;DHT22;10940;48.890;8.240;2023-01-20T07:43:13;-1.90;99.90
21559;DHT22;10940;48.890;8.240;2023-01-20T07:45:38;-1.80;99.90
21559;DHT22;10940;48.890;8.240;2023-01-20T07:48:04;-1.80;99.90
21559;DHT22;10940;48.890;8.240;2023-01-20T07:50:31;-1.80;99.90
21559;DHT22;10940;48.890;8.240;2023-01-20T07:52:56;-1.90;99.90
21559;DHT22;10940;48.890;8.240;2023-01-20T07:55:22;-1.80;99.90
21559;DHT22;10940;48.890;8.240;2023-01-20T07:57:47;-1.80;99.90
21559;DHT22;10940;48.890;8.240;2023-01-20T08:00:17;-1.80;99.90
21559;DHT22;10940;48.890;8.240;2023-01-20T08:02:43;-1.70;99.90
21559;DHT22;10940;48.890;8.240;2023-01-20T08:05:09;-1.70;99.90
21559;DHT22;10940;48.890;8.240;2023-01-20T08:07:34;-1.60;99.90
21559;DHT22;10940;48.890;8.240;2023-01-20T08:10:00;-1.60;99.90
21559;DHT22;10940;48.890;8.240;2023-01-20T08:12:27;-1.50;99.90
21559;DHT22;10940;48.890;8.240;2023-01-20T08:14:53;-1.40;99.90
21559;DHT22;10940;48.890;8.240;2023-01-20T08:17:19;-1.40;99.90
21559;DHT22;10940;48.890;8.240;2023-01-20T08:19:44;-1.30;99.90
21559;DHT22;10940;48.890;8.240;2023-01-20T08:22:10;-1.20;99.90
21559;DHT22;10940;48.890;8.240;2023-01-20T08:24:35;-1.10;99.90
21559;DHT22;10940;48.890;8.240;2023-01-20T08:27:01;-1.00;99.90
21559;DHT22;10940;48.890;8.240;2023-01-20T08:29:27;-0.90;99.90
21559;DHT22;10940;48.890;8.240;2023-01-20T08:31:52;-0.90;99.90
21559;DHT22;10940;48.890;8.240;2023-01-20T08:34:18;-0.80;99.90
21559;DHT22;10940;48.890;8.240;2023-01-20T08:36:45;-0.70;99.90
21559;DHT22;10940;48.890;8.240;2023-01-20T08:39:14;-0.60;99.90
21559;DHT22;10940;48.890;8.240;2023-01-20T08:41:42;-0.50;99.90
21559;DHT22;10940;48.890;8.240;2023-01-20T08:44:09;-0.40;99.90
21559;DHT22;10940;48.890;8.240;2023-01-20T08:46:35;-0.30;99.90
21559;DHT22;10940;48.890;8.240;2023-01-20T08:49:08;-0.30;99.90
21559;DHT22;10940;48.890;8.240;2023-01-20T08:51:35;-0.20;99.90
21559;DHT22;10940;48.890;8.240;2023-01-20T08:54:01;-0.10;99.90
21559;DHT22;10940;48.890;8.240;2023-01-20T08:56:28;0.00;99.90
21559;DHT22;10940;48.890;8.240;2023-01-20T08:58:55;0.00;99.90
21559;DHT22;10940;48.890;8.240;2023-01-20T09:01:29;0.10;99.90
21559;DHT22;10940;48.890;8.240;2023-01-20T09:03:56;0.20;99.90
21559;DHT22;10940;48.890;8.240;2023-01-20T09:06:22;0.40;99.90
21559;DHT22;10940;48.890;8.240;2023-01-20T09:08:49;0.40;99.90
21559;DHT22;10940;48.890;8.240;2023-01-20T09:11:18;0.50;99.90
21559;DHT22;10940;48.890;8.240;2023-01-20T09:13:45;0.50;99.90
21559;DHT22;10940;48.890;8.240;2023-01-20T09:16:12;0.70;99.90
21559;DHT22;10940;48.890;8.240;2023-01-20T09:18:38;0.70;99.90
21559;DHT22;10940;48.890;8.240;2023-01-20T09:21:04;0.80;99.90
21559;DHT22;10940;48.890;8.240;2023-01-20T09:23:32;0.90;99.90
21559;DHT22;10940;48.890;8.240;2023-01-20T09:25:59;1.00;99.90
21559;DHT22;10940;48.890;8.240;2023-01-20T09:28:25;1.00;99.90
21559;DHT22;10940;48.890;8.240;2023-01-20T09:31:00;1.00;99.90
21559;DHT22;10940;48.890;8.240;2023-01-20T09:33:28;1.10;99.90
21559;DHT22;10940;48.890;8.240;2023-01-20T09:35:57;1.20;99.90
21559;DHT22;10940;48.890;8.240;2023-01-20T09:38:24;1.20;99.90
21559;DHT22;10940;48.890;8.240;2023-01-20T09:47:00;1.50;99.90
21559;DHT22;10940;48.890;8.240;2023-01-20T09:50:00;1.60;99.90
21559;DHT22;10940;48.890;8.240;2023-01-20T09:52:45;1.70;99.90
21559;DHT22;10940;48.890;8.240;2023-01-20T09:55:40;1.80;99.90
21559;DHT22;10940;48.890;8.240;2023-01-20T10:00:45;2.00;99.90
21559;DHT22;10940;48.890;8.240;2023-01-20T10:05:42;2.20;99.90
21559;DHT22;10940;48.890;8.240;2023-01-20T10:08:36;2.30;99.90
21559;DHT22;10940;48.890;8.240;2023-01-20T10:11:08;2.40;99.90
21559;DHT22;10940;48.890;8.240;2023-01-20T10:13:48;2.50;99.90
21559;DHT22;10940;48.890;8.240;2023-01-20T10:16:25;2.70;99.90
21559;DHT22;10940;48.890;8.240;2023-01-20T10:18:59;2.80;99.90
21559;DHT22;10940;48.890;8.240;2023-01-20T10:21:49;2.80;99.90
21559;DHT22;10940;48.890;8.240;2023-01-20T10:24:19;2.90;99.90
21559;DHT22;10940;48.890;8.240;2023-01-20T10:29:34;3.00;99.90
21559;DHT22;10940;48.890;8.240;2023-01-20T10:32:03;3.00;99.90
21559;DHT22;10940;48.890;8.240;2023-01-20T10:34:36;3.00;99.90
21559;DHT22;10940;48.890;8.240;2023-01-20T10:37:06;2.90;99.90
21559;DHT22;10940;48.890;8.240;2023-01-20T10:39:42;2.90;99.90
21559;DHT22;10940;48.890;8.240;2023-01-20T10:42:12;2.90;99.90
21559;DHT22;10940;48.890;8.240;2023-01-20T10:44:39;2.90;99.90
21559;DHT22;10940;48.890;8.240;2023-01-20T10:47:09;2.90;99.90
21559;DHT22;10940;48.890;8.240;2023-01-20T10:58:04;3.10;99.90
21559;DHT22;10940;48.890;8.240;2023-01-20T11:00:33;3.20;99.90
21559;DHT22;10940;48.890;8.240;2023-01-20T11:03:01;3.20;99.90
21559;DHT22;10940;48.890;8.240;2023-01-20T11:05:30;3.20;99.90
21559;DHT22;10940;48.890;8.240;2023-01-20T11:07:58;3.20;99.90
21559;DHT22;10940;48.890;8.240;2023-01-20T11:10:28;3.20;99.90
21559;DHT22;10940;48.890;8.240;2023-01-20T11:12:58;3.30;99.90
21559;DHT22;10940;48.890;8.240;2023-01-20T11:15:50;3.30;99.90
21559;DHT22;10940;48.890;8.240;2023-01-20T11:20:48;3.30;99.90
21559;DHT22;10940;48.890;8.240;2023-01-20T11:26:04;3.30;99.90
21559;DHT22;10940;48.890;8.240;2023-01-20T11:31:10;3.40;99.90
21559;DHT22;10940;48.890;8.240;2023-01-20T11:33:36;3.50;99.90
21559;DHT22;10940;48.890;8.240;2023-01-20T11:36:04;3.50;99.90
21559;DHT22;10940;48.890;8.240;2023-01-20T11:38:40;3.50;99.90
21559;DHT22;10940;48.890;8.240;2023-01-20T11:41:20;3.60;99.90
21559;DHT22;10940;48.890;8.240;2023-01-20T11:43:47;3.60;99.90
21559;DHT22;10940;48.890;8.240;2023-01-20T11:46:42;3.70;99.90
21559;DHT22;10940;48.890;8.240;2023-01-20T11:49:18;3.70;99.90
21559;DHT22;10940;48.890;8.240;2023-01-20T11:51:50;3.90;99.90
21559;DHT22;10940;48.890;8.240;2023-01-20T11:54:27;3.90;99.90
21559;DHT22;10940;48.890;8.240;2023-01-20T11:57:00;3.90;99.90
21559;DHT22;10940;48.890;8.240;2023-01-20T11:59:31;4.00;99.90
21559;DHT22;10940;48.890;8.240;2023-01-20T12:04:55;4.00;99.90
21559;DHT22;10940;48.890;8.240;2023-01-20T12:07:36;4.00;99.90
21559;DHT22;10940;48.890;8.240;2023-01-20T12:10:20;4.10;99.90
21559;DHT22;10940;48.890;8.240;2023-01-20T12:12:56;4.20;99.90
21559;DHT22;10940;48.890;8.240;2023-01-20T12:15:32;4.10;99.90
21559;DHT22;10940;48.890;8.240;2023-01-20T12:18:04;4.10;99.90
21559;DHT22;10940;48.890;8.240;2023-01-20T12:20:39;4.10;99.90
21559;DHT22;10940;48.890;8.240;2023-01-20T12:26:10;4.10;99.90
21559;DHT22;10940;48.890;8.240;2023-01-20T12:31:29;4.20;99.90
21559;DHT22;10940;48.890;8.240;2023-01-20T12:34:04;4.30;99.90
21559;DHT22;10940;48.890;8.240;2023-01-20T12:36:49;4.30;99.90
21559;DHT22;10940;48.890;8.240;2023-01-20T12:39:38;4.40;99.90
21559;DHT22;10940;48.890;8.240;2023-01-20T12:48:15;4.50;99.90
21559;DHT22;10940;48.890;8.240;2023-01-20T12:51:10;4.40;99.90
21559;DHT22;10940;48.890;8.240;2023-01-20T12:54:00;4.30;99.90
21559;DHT22;10940;48.890;8.240;2023-01-20T12:56:43;4.30;99.90
21559;DHT22;10940;48.890;8.240;2023-01-20T13:02:55;4.20;99.90
21559;DHT22;10940;48.890;8.240;2023-01-20T13:14:37;4.50;99.90
21559;DHT22;10940;48.890;8.240;2023-01-20T13:17:55;4.60;99.90
21559;DHT22;10940;48.890;8.240;2023-01-20T13:19:47;4.90;99.90
21559;DHT22;10940;48.890;8.240;2023-01-20T13:22:20;5.40;99.90
21559;DHT22;10940;48.890;8.240;2023-01-20T13:24:54;5.80;99.90
21559;DHT22;10940;48.890;8.240;2023-01-20T13:27:32;6.20;99.90
21559;DHT22;10940;48.890;8.240;2023-01-20T13:29:59;6.20;99.90
21559;DHT22;10940;48.890;8.240;2023-01-20T13:32:34;6.30;99.90
21559;DHT22;10940;48.890;8.240;2023-01-20T13:35:35;6.30;99.90
21559;DHT22;10940;48.890;8.240;2023-01-20T13:38:11;6.30;99.90
21559;DHT22;10940;48.890;8.240;2023-01-20T13:45:28;6.10;99.90
21559;DHT22;10940;48.890;8.240;2023-01-20T14:00:40;6.20;99.90
21559;DHT22;10940;48.890;8.240;2023-01-20T14:08:21;6.10;99.90
21559;DHT22;10940;48.890;8.240;2023-01-20T14:10:47;5.90;99.90
21559;DHT22;10940;48.890;8.240;2023-01-20T14:13:23;5.70;99.90
21559;DHT22;10940;48.890;8.240;2023-01-20T14:15:51;5.40;99.90
21559;DHT22;10940;48.890;8.240;2023-01-20T14:18:19;5.20;99.90
21559;DHT22;10940;48.890;8.240;2023-01-20T14:21:03;5.10;99.90
21559;DHT22;10940;48.890;8.240;2023-01-20T14:23:33;5.10;99.90
21559;DHT22;10940;48.890;8.240;2023-01-20T14:26:05;5.00;99.90
21559;DHT22;10940;48.890;8.240;2023-01-20T14:28:31;5.00;99.90
21559;DHT22;10940;48.890;8.240;2023-01-20T14:31:27;4.90;99.90
21559;DHT22;10940;48.890;8.240;2023-01-20T14:36:28;4.80;99.90
21559;DHT22;10940;48.890;8.240;2023-01-20T14:38:56;4.70;99.90
21559;DHT22;10940;48.890;8.240;2023-01-20T14:41:29;4.60;99.90
21559;DHT22;10940;48.890;8.240;2023-01-20T14:43:56;4.50;99.90
21559;DHT22;10940;48.890;8.240;2023-01-20T14:46:23;4.50;99.90
21559;DHT22;10940;48.890;8.240;2023-01-20T14:48:49;4.40;99.90
21559;DHT22;10940;48.890;8.240;2023-01-20T14:51:15;4.40;99.90
21559;DHT22;10940;48.890;8.240;2023-01-20T14:53:41;4.40;99.90
21559;DHT22;10940;48.890;8.240;2023-01-20T14:56:17;4.30;99.90
21559;DHT22;10940;48.890;8.240;2023-01-20T14:58:45;4.30;99.90
21559;DHT22;10940;48.890;8.240;2023-01-20T15:01:20;4.30;99.90
21559;DHT22;10940;48.890;8.240;2023-01-20T15:03:54;4.20;99.90
21559;DHT22;10940;48.890;8.240;2023-01-20T15:06:21;4.20;99.90
21559;DHT22;10940;48.890;8.240;2023-01-20T15:08:49;4.20;99.90
21559;DHT22;10940;48.890;8.240;2023-01-20T15:16:28;4.10;99.90
21559;DHT22;10940;48.890;8.240;2023-01-20T15:21:55;4.10;99.90
21559;DHT22;10940;48.890;8.240;2023-01-20T15:24:23;4.10;99.90
21559;DHT22;10940;48.890;8.240;2023-01-20T15:26:51;4.00;99.90
21559;DHT22;10940;48.890;8.240;2023-01-20T15:29:35;4.00;99.90
21559;DHT22;10940;48.890;8.240;2023-01-20T15:32:11;4.00;99.90
21559;DHT22;10940;48.890;8.240;2023-01-20T15:34:37;3.90;99.90
21559;DHT22;10940;48.890;8.240;2023-01-20T15:37:10;3.90;99.90
21559;DHT22;10940;48.890;8.240;2023-01-20T15:39:39;3.90;99.90
21559;DHT22;10940;48.890;8.240;2023-01-20T15:42:07;3.90;99.90
21559;DHT22;10940;48.890;8.240;2023-01-20T15:44:33;3.80;99.90
21559;DHT22;10940;48.890;8.240;2023-01-20T15:46:59;3.70;99.90
21559;DHT22;10940;48.890;8.240;2023-01-20T15:49:25;3.70;99.90
21559;DHT22;10940;48.890;8.240;2023-01-20T15:51:51;3.60;99.90
21559;DHT22;10940;48.890;8.240;2023-01-20T15:54:16;3.60;99.90
21559;DHT22;10940;48.890;8.240;2023-01-20T15:56:42;3.50;99.90
21559;DHT22;10940;48.890;8.240;2023-01-20T15:59:13;3.40;99.90
21559;DHT22;10940;48.890;8.240;2023-01-20T16:01:39;3.40;99.90
21559;DHT22;10940;48.890;8.240;2023-01-20T16:04:04;3.30;99.90
21559;DHT22;10940;48.890;8.240;2023-01-20T16:06:31;3.20;99.90
21559;DHT22;10940;48.890;8.240;2023-01-20T16:08:59;3.20;99.90
21559;DHT22;10940;48.890;8.240;2023-01-20T16:11:25;3.10;99.90
21559;DHT22;10940;48.890;8.240;2023-01-20T16:13:51;3.00;99.90
21559;DHT22;10940;48.890;8.240;2023-01-20T16:16:19;3.00;99.90
21559;DHT22;10940;48.890;8.240;2023-01-20T16:18:47;2.90;99.90
21559;DHT22;10940;48.890;8.240;2023-01-20T16:21:14;2.90;99.90
21559;DHT22;10940;48.890;8.240;2023-01-20T16:23:41;2.80;99.90
21559;DHT22;10940;48.890;8.240;2023-01-20T16:26:22;2.70;99.90
21559;DHT22;10940;48.890;8.240;2023-01-20T16:28:54;2.60;99.90
21559;DHT22;10940;48.890;8.240;2023-01-20T16:31:20;2.60;99.90
21559;DHT22;10940;48.890;8.240;2023-01-20T16:33:46;2.60;99.90
21559;DHT22;10940;48.890;8.240;2023-01-20T16:36:14;2.60;99.90
21559;DHT22;10940;48.890;8.240;2023-01-20T16:38:40;2.60;99.90
21559;DHT22;10940;48.890;8.240;2023-01-20T16:43:39;2.50;99.90
21559;DHT22;10940;48.890;8.240;2023-01-20T16:46:27;2.50;99.90
21559;DHT22;10940;48.890;8.240;2023-01-20T16:48:54;2.40;99.90
21559;DHT22;10940;48.890;8.240;2023-01-20T16:51:24;2.50;99.90
21559;DHT22;10940;48.890;8.240;2023-01-20T16:53:51;2.40;99.90
21559;DHT22;10940;48.890;8.240;2023-01-20T16:56:21;2.40;99.90
21559;DHT22;10940;48.890;8.240;2023-01-20T16:58:48;2.40;99.90
21559;DHT22;10940;48.890;8.240;2023-01-20T17:01:15;2.40;99.90
21559;DHT22;10940;48.890;8.240;2023-01-20T17:03:45;2.30;99.90
21559;DHT22;10940;48.890;8.240;2023-01-20T17:06:16;2.40;99.90
21559;DHT22;10940;48.890;8.240;2023-01-20T17:08:43;2.50;99.90
21559;DHT22;10940;48.890;8.240;2023-01-20T17:11:09;2.40;99.90
21559;DHT22;10940;48.890;8.240;2023-01-20T17:13:35;2.40;99.90
21559;DHT22;10940;48.890;8.240;2023-01-20T17:16:02;2.40;99.90
21559;DHT22;10940;48.890;8.240;2023-01-20T17:18:30;2.30;99.90
21559;DHT22;10940;48.890;8.240;2023-01-20T17:20:55;2.30;99.90
21559;DHT22;10940;48.890;8.240;2023-01-20T17:23:21;2.30;99.90
21559;DHT22;10940;48.890;8.240;2023-01-20T17:25:47;2.30;99.90
21559;DHT22;10940;48.890;8.240;2023-01-20T17:28:12;2.30;99.90
21559;DHT22;10940;48.890;8.240;2023-01-20T17:30:38;2.30;99.90
21559;DHT22;10940;48.890;8.240;2023-01-20T17:33:03;2.30;99.90
21559;DHT22;10940;48.890;8.240;2023-01-20T17:35:29;2.40;99.90
21559;DHT22;10940;48.890;8.240;2023-01-20T17:37:56;2.40;99.90
21559;DHT22;10940;48.890;8.240;2023-01-20T17:40:22;2.40;99.90
21559;DHT22;10940;48.890;8.240;2023-01-20T17:42:51;2.40;99.90
21559;DHT22;10940;48.890;8.240;2023-01-20T17:45:17;2.40;99.90
21559;DHT22;10940;48.890;8.240;2023-01-20T17:47:42;2.40;99.90
21559;DHT22;10940;48.890;8.240;2023-01-20T17:50:08;2.40;99.90
21559;DHT22;10940;48.890;8.240;2023-01-20T17:52:34;2.40;99.90
21559;DHT22;10940;48.890;8.240;2023-01-20T17:55:00;2.40;99.90